Terminal Aerodrome Forecast
Issued by NWS Sioux Falls, SD

Home | Current Version | Previous Version | Graphics & Text | Print | Product List | Glossary On
Versions: 1 2 3 4 5 6 7 8 9 10 11 12 13 14 15 16 17 18 19 20 21 22 23
000
FTUS43 KFSD 221701 AAA
TAFFSD
TAF AMD
KFSD 221701Z 2217/2312 17017G25KT P6SM BKN090
     FM221900 17014G21KT P6SM SCT040 BKN070
     FM222100 20010KT 4SM -RA BKN015 OVC040
     FM230100 23007KT P6SM SCT008 BKN070
     FM230500 26004KT P6SM SKC=

USA.gov is the U.S. government's official web portal to all federal, state and local government web resources and services.